| Date | Time | Temp. (oF) | Dew Point (oF) | Rel. Hum. (%) | Press. (in.) | Wind Dir. | Wind Speed (mph) | Hourly Rainfall (in.) |
|
|---|---|---|---|---|---|---|---|---|---|
| 1 | 02/20 | 00:00 | 46 | 26 | 47 | 30.18 | ESE | 2 | 0.00 |
| 2 | 02/19 | 23:00 | 46 | 26 | 46 | 30.19 | SW | 5 | 0.00 |
| 3 | 02/19 | 22:00 | 47 | 25 | 43 | 30.21 | SSE | 6 | 0.00 |
| 4 | 02/19 | 21:00 | 47 | 23 | 40 | 30.22 | S | 2 | 0.00 |
| 5 | 02/19 | 20:00 | 47 | 23 | 40 | 30.22 | S | 5 | 0.00 |
| 6 | 02/19 | 19:00 | 49 | 22 | 35 | 30.23 | S | 5 | 0.00 |
| 7 | 02/19 | 18:00 | 51 | 21 | 31 | 30.22 | S | 5 | 0.00 |
| 8 | 02/19 | 17:00 | 54 | 21 | 28 | 30.21 | S | 4 | 0.00 |
| 9 | 02/19 | 16:00 | 55 | 18 | 24 | 30.20 | SSW | 3 | 0.00 |
| 10 | 02/19 | 15:00 | 56 | 20 | 25 | 30.19 | S | 5 | 0.00 |
| 11 | 02/19 | 14:00 | 54 | 17 | 24 | 30.20 | S | 3 | 0.00 |
| 12 | 02/19 | 13:00 | 53 | 18 | 26 | 30.22 | S | 6 | 0.00 |
| 13 | 02/19 | 12:00 | 50 | 18 | 29 | 30.27 | S | 3 | 0.00 |
| 14 | 02/19 | 11:00 | 46 | 21 | 38 | 30.29 | SW | 5 | 0.00 |
| 15 | 02/19 | 10:00 | 37 | 24 | 61 | 30.31 | ENE | 1 | 0.00 |
| 16 | 02/19 | 09:00 | 27 | 26 | 96 | 30.33 | E | 1 | 0.00 |
| 17 | 02/19 | 08:00 | 19 | 18 | 98 | 30.34 | SE | 0 | 0.00 |
| 18 | 02/19 | 07:00 | 17 | 16 | 96 | 30.33 | NNW | 1 | 0.00 |
| 19 | 02/19 | 06:00 | 18 | 16 | 94 | 30.32 | NNW | 1 | 0.00 |
| 20 | 02/19 | 05:00 | 18 | 16 | 92 | 30.33 | NE | 0 | 0.00 |
| 21 | 02/19 | 04:00 | 19 | 16 | 90 | 30.32 | NE | 0 | 0.00 |
| 22 | 02/19 | 03:00 | 20 | 17 | 89 | 30.31 | NE | 0 | 0.00 |
| 23 | 02/19 | 02:00 | 21 | 17 | 85 | 30.32 | W | 0 | 0.00 |
| 24 | 02/19 | 01:00 | 22 | 17 | 84 | 30.32 | SW | 1 | 0.00 |